Time,TemperatureF,DewpointF,PressureIn,WindDirection,WindDirectionDegrees,WindSpeedMPH,WindSpeedGustMPH,Humidity,HourlyPrecipIn,Conditions,Clouds,dailyrainin,SoftwareType,DateUTC
2013-05-20 00:00:00,65.9,63.0,30.12,NNW,335,0.0,0.0,90,0.00,,,0.00,weatherlink.com 1.10,2013-05-20 04:00:00,
2013-05-20 00:15:00,65.7,63.0,30.11,NNW,331,0.0,0.0,91,0.00,,,0.00,weatherlink.com 1.10,2013-05-20 04:15:00,
2013-05-20 00:30:00,65.4,63.0,30.11,NNW,333,0.0,0.0,91,0.00,,,0.00,weatherlink.com 1.10,2013-05-20 04:30:00,
2013-05-20 00:45:00,65.1,63.0,30.10,NNW,331,0.0,0.0,92,0.00,,,0.00,weatherlink.com 1.10,2013-05-20 04:45:00,
2013-05-20 01:00:00,64.8,63.0,30.11,North,352,0.0,0.0,92,0.00,,,0.00,weatherlink.com 1.10,2013-05-20 05:00:00,
2013-05-20 01:15:00,64.8,63.0,30.10,NNE,26,0.0,0.0,92,0.00,,,0.00,weatherlink.com 1.10,2013-05-20 05:15:00,
2013-05-20 01:30:00,64.8,63.0,30.09,NNE,20,0.0,0.0,92,0.00,,,0.00,weatherlink.com 1.10,2013-05-20 05:30:00,
2013-05-20 01:45:00,65.3,63.0,30.09,SW,228,0.0,0.0,92,0.00,,,0.00,weatherlink.com 1.10,2013-05-20 05:45:00,
2013-05-20 02:00:00,66.1,64.0,30.08,ESE,110,2.0,5.0,91,0.00,,,0.00,weatherlink.com 1.10,2013-05-20 06:00:00,
2013-05-20 02:15:00,66.6,64.0,30.07,SSE,162,4.0,6.0,90,0.00,,,0.00,weatherlink.com 1.10,2013-05-20 06:15:00,
2013-05-20 02:30:00,-999.0,-99.9,30.07,North,-999,-999.0,-999.0,-999,0.00,,,0.00,weatherlink.com 1.10,2013-05-20 06:30:00,
2013-05-20 02:45:00,-999.0,-99.9,30.06,North,-999,-999.0,-999.0,-999,0.00,,,0.00,weatherlink.com 1.10,2013-05-20 06:45:00,
2013-05-20 03:00:00,-999.0,-99.9,30.06,North,-999,-999.0,-999.0,-999,0.00,,,0.00,weatherlink.com 1.10,2013-05-20 07:00:00,
2013-05-20 03:15:00,-999.0,-99.9,30.06,North,-999,-999.0,-999.0,-999,0.00,,,0.00,weatherlink.com 1.10,2013-05-20 07:15:00,
2013-05-20 03:30:00,-999.0,-99.9,30.06,North,-999,-999.0,-999.0,-999,0.00,,,0.00,weatherlink.com 1.10,2013-05-20 07:30:00,
2013-05-20 03:45:00,-999.0,-99.9,30.06,North,-999,-999.0,-999.0,-999,0.00,,,0.00,weatherlink.com 1.10,2013-05-20 07:45:00,
2013-05-20 04:00:00,-999.0,-99.9,30.06,North,-999,-999.0,-999.0,-999,0.00,,,0.00,weatherlink.com 1.10,2013-05-20 08:00:00,
2013-05-20 04:15:00,-999.0,-99.9,30.05,North,-999,-999.0,-999.0,-999,0.00,,,0.00,weatherlink.com 1.10,2013-05-20 08:15:00,
2013-05-20 04:30:00,-999.0,-99.9,30.06,North,-999,-999.0,-999.0,-999,0.00,,,0.00,weatherlink.com 1.10,2013-05-20 08:30:00,
2013-05-20 04:46:00,-999.0,-99.9,30.07,North,-999,-999.0,-999.0,-999,0.00,,,0.00,weatherlink.com 1.10,2013-05-20 08:46:00,
2013-05-20 05:01:00,-999.0,-99.9,30.06,North,-999,-999.0,-999.0,-999,0.00,,,0.00,weatherlink.com 1.10,2013-05-20 09:01:00,
2013-05-20 05:16:00,-999.0,-99.9,30.06,North,-999,-999.0,-999.0,-999,0.00,,,0.00,weatherlink.com 1.10,2013-05-20 09:16:00,
2013-05-20 05:31:00,-999.0,-99.9,30.07,North,-999,-999.0,-999.0,-999,0.00,,,0.00,weatherlink.com 1.10,2013-05-20 09:31:00,
2013-05-20 05:46:00,-999.0,-99.9,30.07,North,-999,-999.0,-999.0,-999,0.00,,,0.00,weatherlink.com 1.10,2013-05-20 09:46:00,
2013-05-20 06:01:00,-999.0,-99.9,30.08,North,-999,-999.0,-999.0,-999,0.00,,,0.00,weatherlink.com 1.10,2013-05-20 10:01:00,
2013-05-20 06:16:00,-999.0,-99.9,30.08,North,-999,-999.0,-999.0,-999,0.00,,,0.00,weatherlink.com 1.10,2013-05-20 10:16:00,
2013-05-20 06:31:00,-999.0,-99.9,30.09,North,-999,-999.0,-999.0,-999,0.00,,,0.00,weatherlink.com 1.10,2013-05-20 10:31:00,
2013-05-20 06:46:00,-999.0,-99.9,30.10,North,-999,-999.0,-999.0,-999,0.00,,,0.00,weatherlink.com 1.10,2013-05-20 10:46:00,
2013-05-20 07:01:00,-999.0,-99.9,30.10,North,-999,-999.0,-999.0,-999,0.00,,,0.00,weatherlink.com 1.10,2013-05-20 11:01:00,
2013-05-20 07:16:00,-999.0,-99.9,30.09,North,-999,-999.0,-999.0,-999,0.00,,,0.00,weatherlink.com 1.10,2013-05-20 11:16:00,
2013-05-20 07:31:00,-999.0,-99.9,30.09,North,-999,-999.0,-999.0,-999,0.00,,,0.00,weatherlink.com 1.10,2013-05-20 11:31:00,
2013-05-20 07:46:00,-999.0,-99.9,30.09,North,-999,-999.0,-999.0,-999,0.00,,,0.00,weatherlink.com 1.10,2013-05-20 11:46:00,
2013-05-20 08:01:00,-999.0,-99.9,30.09,North,-999,-999.0,-999.0,-999,0.00,,,0.00,weatherlink.com 1.10,2013-05-20 12:01:00,
2013-05-20 08:17:00,-999.0,-99.9,30.10,North,-999,-999.0,-999.0,-999,0.00,,,0.00,weatherlink.com 1.10,2013-05-20 12:17:00,
2013-05-20 08:32:00,-999.0,-99.9,30.10,North,-999,-999.0,-999.0,-999,0.00,,,0.00,weatherlink.com 1.10,2013-05-20 12:32:00,
2013-05-20 08:47:00,-999.0,-99.9,30.10,North,-999,-999.0,-999.0,-999,0.00,,,0.00,weatherlink.com 1.10,2013-05-20 12:47:00,
2013-05-20 09:02:00,-999.0,-99.9,30.10,North,-999,-999.0,-999.0,-999,0.00,,,0.00,weatherlink.com 1.10,2013-05-20 13:02:00,
2013-05-20 09:17:00,-999.0,-99.9,30.10,North,-999,-999.0,-999.0,-999,0.00,,,0.00,weatherlink.com 1.10,2013-05-20 13:17:00,
2013-05-20 09:32:00,-999.0,-99.9,30.10,North,-999,-999.0,-999.0,-999,0.00,,,0.00,weatherlink.com 1.10,2013-05-20 13:32:00,
2013-05-20 09:47:00,-999.0,-99.9,30.09,North,-999,-999.0,-999.0,-999,0.00,,,0.00,weatherlink.com 1.10,2013-05-20 13:47:00,
2013-05-20 10:02:00,-999.0,-99.9,30.09,North,-999,-999.0,-999.0,-999,0.00,,,0.00,weatherlink.com 1.10,2013-05-20 14:02:00,
2013-05-20 10:17:00,-999.0,-99.9,30.09,North,-999,-999.0,-999.0,-999,0.00,,,0.00,weatherlink.com 1.10,2013-05-20 14:17:00,
2013-05-20 10:32:00,-999.0,-99.9,30.09,North,-999,-999.0,-999.0,-999,0.00,,,0.00,weatherlink.com 1.10,2013-05-20 14:32:00,
2013-05-20 10:47:00,-999.0,-99.9,30.08,North,-999,-999.0,-999.0,-999,0.00,,,0.00,weatherlink.com 1.10,2013-05-20 14:47:00,
2013-05-20 11:02:00,-999.0,-99.9,30.08,North,-999,-999.0,-999.0,-999,0.00,,,0.00,weatherlink.com 1.10,2013-05-20 15:02:00,
2013-05-20 11:17:00,-999.0,-99.9,30.08,North,-999,-999.0,-999.0,-999,0.00,,,0.00,weatherlink.com 1.10,2013-05-20 15:17:00,
2013-05-20 11:32:00,-999.0,-99.9,30.07,North,-999,-999.0,-999.0,-999,0.00,,,0.00,weatherlink.com 1.10,2013-05-20 15:32:00,
2013-05-20 11:47:00,-999.0,-99.9,30.07,North,-999,-999.0,-999.0,-999,0.00,,,0.00,weatherlink.com 1.10,2013-05-20 15:47:00,
2013-05-20 12:02:00,-999.0,-99.9,30.06,North,-999,-999.0,-999.0,-999,0.00,,,0.00,weatherlink.com 1.10,2013-05-20 16:02:00,
2013-05-20 12:17:00,-999.0,-99.9,30.06,North,-999,-999.0,-999.0,-999,0.00,,,0.00,weatherlink.com 1.10,2013-05-20 16:17:00,
2013-05-20 12:32:00,-999.0,-99.9,30.06,North,-999,-999.0,-999.0,-999,0.00,,,0.00,weatherlink.com 1.10,2013-05-20 16:32:00,
2013-05-20 12:47:00,-999.0,-99.9,30.06,North,-999,-999.0,-999.0,-999,0.00,,,0.00,weatherlink.com 1.10,2013-05-20 16:47:00,
2013-05-20 13:02:00,-999.0,-99.9,30.05,North,-999,-999.0,-999.0,-999,0.00,,,0.00,weatherlink.com 1.10,2013-05-20 17:02:00,
2013-05-20 13:17:00,-999.0,-99.9,30.05,North,-999,-999.0,-999.0,-999,0.00,,,0.00,weatherlink.com 1.10,2013-05-20 17:17:00,
2013-05-20 13:32:00,-999.0,-99.9,30.05,North,-999,-999.0,-999.0,-999,0.00,,,0.00,weatherlink.com 1.10,2013-05-20 17:32:00,
2013-05-20 13:47:00,-999.0,-99.9,30.05,North,-999,-999.0,-999.0,-999,0.00,,,0.00,weatherlink.com 1.10,2013-05-20 17:47:00,
2013-05-20 14:02:00,-999.0,-99.9,30.04,North,-999,-999.0,-999.0,-999,0.00,,,0.00,weatherlink.com 1.10,2013-05-20 18:02:00,
2013-05-20 14:17:00,-999.0,-99.9,30.03,North,-999,-999.0,-999.0,-999,0.00,,,0.00,weatherlink.com 1.10,2013-05-20 18:17:00,
2013-05-20 14:32:00,-999.0,-99.9,30.03,North,-999,-999.0,-999.0,-999,0.00,,,0.00,weatherlink.com 1.10,2013-05-20 18:32:00,
2013-05-20 14:47:00,-999.0,-99.9,30.03,North,-999,-999.0,-999.0,-999,0.00,,,0.00,weatherlink.com 1.10,2013-05-20 18:47:00,
2013-05-20 15:02:00,-999.0,-99.9,30.03,North,-999,-999.0,-999.0,-999,0.00,,,0.00,weatherlink.com 1.10,2013-05-20 19:02:00,
2013-05-20 15:18:00,-999.0,-99.9,30.03,North,-999,-999.0,-999.0,-999,0.00,,,0.00,weatherlink.com 1.10,2013-05-20 19:18:00,
2013-05-20 15:33:00,-999.0,-99.9,30.02,North,-999,-999.0,-999.0,-999,0.00,,,0.00,weatherlink.com 1.10,2013-05-20 19:33:00,
2013-05-20 15:48:00,-999.0,-99.9,30.01,North,-999,-999.0,-999.0,-999,0.00,,,0.00,weatherlink.com 1.10,2013-05-20 19:48:00,
2013-05-20 16:03:00,-999.0,-99.9,30.00,North,-999,-999.0,-999.0,-999,0.00,,,0.00,weatherlink.com 1.10,2013-05-20 20:03:00,
2013-05-20 16:18:00,-999.0,-99.9,30.00,North,-999,-999.0,-999.0,-999,0.00,,,0.00,weatherlink.com 1.10,2013-05-20 20:18:00,
2013-05-20 16:33:00,-999.0,-99.9,29.99,North,-999,-999.0,-999.0,-999,0.00,,,0.00,weatherlink.com 1.10,2013-05-20 20:33:00,
2013-05-20 16:48:00,-999.0,-99.9,29.99,North,-999,-999.0,-999.0,-999,0.00,,,0.00,weatherlink.com 1.10,2013-05-20 20:48:00,
2013-05-20 17:03:00,-999.0,-99.9,29.99,North,-999,-999.0,-999.0,-999,0.00,,,0.00,weatherlink.com 1.10,2013-05-20 21:03:00,
2013-05-20 17:18:00,-999.0,-99.9,29.99,North,-999,-999.0,-999.0,-999,0.00,,,0.00,weatherlink.com 1.10,2013-05-20 21:18:00,
2013-05-20 17:33:00,-999.0,-99.9,29.99,North,-999,-999.0,-999.0,-999,0.00,,,0.00,weatherlink.com 1.10,2013-05-20 21:33:00,
2013-05-20 17:48:00,-999.0,-99.9,30.00,North,-999,-999.0,-999.0,-999,0.00,,,0.00,weatherlink.com 1.10,2013-05-20 21:48:00,
2013-05-20 18:03:00,-999.0,-99.9,29.99,North,-999,-999.0,-999.0,-999,0.00,,,0.00,weatherlink.com 1.10,2013-05-20 22:03:00,
2013-05-20 18:18:00,-999.0,-99.9,29.99,North,-999,-999.0,-999.0,-999,0.00,,,0.00,weatherlink.com 1.10,2013-05-20 22:18:00,
2013-05-20 18:33:00,-999.0,-99.9,29.99,North,-999,-999.0,-999.0,-999,0.00,,,0.00,weatherlink.com 1.10,2013-05-20 22:33:00,
2013-05-20 18:49:00,-999.0,-99.9,29.99,North,-999,-999.0,-999.0,-999,0.00,,,0.00,weatherlink.com 1.10,2013-05-20 22:49:00,
2013-05-20 19:04:00,-999.0,-99.9,29.99,North,-999,-999.0,-999.0,-999,0.00,,,0.00,weatherlink.com 1.10,2013-05-20 23:04:00,
2013-05-20 19:19:00,-999.0,-99.9,29.99,North,-999,-999.0,-999.0,-999,0.00,,,0.00,weatherlink.com 1.10,2013-05-20 23:19:00,
2013-05-20 19:34:00,-999.0,-99.9,29.99,North,-999,-999.0,-999.0,-999,0.00,,,0.00,weatherlink.com 1.10,2013-05-20 23:34:00,
2013-05-20 19:49:00,-999.0,-99.9,30.00,North,-999,-999.0,-999.0,-999,0.00,,,0.00,weatherlink.com 1.10,2013-05-20 23:49:00,
2013-05-20 20:04:00,-999.0,-99.9,30.00,North,-999,-999.0,-999.0,-999,0.00,,,0.00,weatherlink.com 1.10,2013-05-21 00:04:00,
2013-05-20 20:19:00,-999.0,-99.9,30.00,North,-999,-999.0,-999.0,-999,0.00,,,0.00,weatherlink.com 1.10,2013-05-21 00:19:00,
2013-05-20 20:34:00,-999.0,-99.9,29.99,North,-999,-999.0,-999.0,-999,0.00,,,0.00,weatherlink.com 1.10,2013-05-21 00:34:00,
2013-05-20 20:49:00,-999.0,-99.9,29.99,North,-999,-999.0,-999.0,-999,0.00,,,0.00,weatherlink.com 1.10,2013-05-21 00:49:00,
2013-05-20 21:04:00,-999.0,-99.9,29.99,North,-999,-999.0,-999.0,-999,0.00,,,0.00,weatherlink.com 1.10,2013-05-21 01:04:00,
2013-05-20 21:19:00,-999.0,-99.9,29.99,North,-999,-999.0,-999.0,-999,0.00,,,0.00,weatherlink.com 1.10,2013-05-21 01:19:00,
2013-05-20 21:34:00,-999.0,-99.9,29.99,North,-999,-999.0,-999.0,-999,0.00,,,0.00,weatherlink.com 1.10,2013-05-21 01:34:00,
2013-05-20 21:49:00,-999.0,-99.9,29.99,North,-999,-999.0,-999.0,-999,0.00,,,0.00,weatherlink.com 1.10,2013-05-21 01:49:00,
2013-05-20 22:04:00,-999.0,-99.9,29.99,North,-999,-999.0,-999.0,-999,0.00,,,0.00,weatherlink.com 1.10,2013-05-21 02:04:00,
2013-05-20 22:20:00,-999.0,-99.9,30.00,North,-999,-999.0,-999.0,-999,0.00,,,0.00,weatherlink.com 1.10,2013-05-21 02:20:00,
2013-05-20 22:35:00,-999.0,-99.9,30.00,North,-999,-999.0,-999.0,-999,0.00,,,0.00,weatherlink.com 1.10,2013-05-21 02:35:00,
2013-05-20 22:50:00,-999.0,-99.9,30.00,North,-999,-999.0,-999.0,-999,0.00,,,0.00,weatherlink.com 1.10,2013-05-21 02:50:00,
2013-05-20 23:05:00,-999.0,-99.9,30.00,North,-999,-999.0,-999.0,-999,0.00,,,0.00,weatherlink.com 1.10,2013-05-21 03:05:00,
2013-05-20 23:20:00,-999.0,-99.9,30.00,North,-999,-999.0,-999.0,-999,0.00,,,0.00,weatherlink.com 1.10,2013-05-21 03:20:00,
2013-05-20 23:50:00,-999.0,-99.9,29.99,North,-999,-999.0,-999.0,-999,0.00,,,0.00,weatherlink.com 1.10,2013-05-21 03:50:00,